createdAt,value
2017-12-02T00:00:04.069Z,848.19
2017-12-02T00:01:03.933Z,848.19
2017-12-02T00:02:03.793Z,848.21
2017-12-02T00:03:03.658Z,848.22
2017-12-02T00:04:03.528Z,848.24
2017-12-02T00:05:03.386Z,848.24
2017-12-02T00:06:03.254Z,848.24
2017-12-02T00:07:03.109Z,848.24
2017-12-02T00:08:02.977Z,848.27
2017-12-02T00:09:02.835Z,848.28
2017-12-02T00:10:02.699Z,848.25
2017-12-02T00:11:02.562Z,848.25
2017-12-02T00:12:02.425Z,848.22
2017-12-02T00:13:02.288Z,848.29
2017-12-02T00:14:02.150Z,848.28
2017-12-02T00:15:02.013Z,848.28
2017-12-02T00:16:01.877Z,848.30
2017-12-02T00:17:01.740Z,848.29
2017-12-02T00:18:01.603Z,848.31
2017-12-02T00:19:01.465Z,848.29
2017-12-02T00:20:01.329Z,848.31
2017-12-02T00:21:01.191Z,848.32
2017-12-02T00:22:01.053Z,848.29
2017-12-02T00:23:00.916Z,848.33
2017-12-02T00:24:00.778Z,848.33
2017-12-02T00:25:00.641Z,848.30
2017-12-02T00:26:00.504Z,848.31
2017-12-02T00:27:00.365Z,848.35
2017-12-02T00:28:00.233Z,848.36
2017-12-02T00:29:00.090Z,848.34
2017-12-02T00:29:59.954Z,848.34
2017-12-02T00:30:59.819Z,848.31
2017-12-02T00:31:59.676Z,848.31
2017-12-02T00:32:59.543Z,848.31
2017-12-02T00:33:59.404Z,848.30
2017-12-02T00:34:59.272Z,848.32
2017-12-02T00:35:59.126Z,848.30
2017-12-02T00:36:58.993Z,848.28
2017-12-02T00:37:58.852Z,848.27
2017-12-02T00:38:58.718Z,848.27
2017-12-02T00:39:58.576Z,848.30
2017-12-02T00:40:58.441Z,848.32
2017-12-02T00:41:58.303Z,848.35
2017-12-02T00:42:58.164Z,848.33
2017-12-02T00:43:58.026Z,848.35
2017-12-02T00:44:57.889Z,848.35
2017-12-02T00:45:57.750Z,848.33
2017-12-02T00:46:57.611Z,848.34
2017-12-02T00:47:57.479Z,848.36
2017-12-02T00:48:57.336Z,848.34
2017-12-02T00:49:57.200Z,848.35
2017-12-02T00:50:57.062Z,848.33
2017-12-02T00:51:56.922Z,848.30
2017-12-02T00:52:56.785Z,848.32
2017-12-02T00:53:56.648Z,848.35
2017-12-02T00:54:56.509Z,848.33
2017-12-02T00:55:56.370Z,848.34
2017-12-02T00:56:56.235Z,848.30
2017-12-02T00:57:56.096Z,848.32
2017-12-02T00:58:55.956Z,848.37
2017-12-02T00:59:55.817Z,848.37
2017-12-02T01:00:55.686Z,848.36
2017-12-02T01:01:55.541Z,848.36
2017-12-02T01:02:55.405Z,848.38
2017-12-02T01:03:55.267Z,848.40
2017-12-02T01:04:55.130Z,848.43
2017-12-02T01:05:54.994Z,848.47
2017-12-02T01:06:54.852Z,848.44
2017-12-02T01:07:54.716Z,848.48
2017-12-02T01:08:54.579Z,848.46
2017-12-02T01:09:54.439Z,848.46
2017-12-02T01:10:54.298Z,848.51
2017-12-02T01:11:54.163Z,848.53
2017-12-02T01:12:54.026Z,848.53
2017-12-02T01:13:53.887Z,848.53
2017-12-02T01:14:53.748Z,848.54
2017-12-02T01:15:53.612Z,848.52
2017-12-02T01:16:53.473Z,848.56
2017-12-02T01:17:53.334Z,848.60
2017-12-02T01:18:53.199Z,848.62
2017-12-02T01:19:53.060Z,848.66
2017-12-02T01:20:52.927Z,848.69
2017-12-02T01:21:52.785Z,848.70
2017-12-02T01:22:52.647Z,848.74
2017-12-02T01:23:52.509Z,848.78
2017-12-02T01:24:52.370Z,848.75
2017-12-02T01:25:52.233Z,848.76
2017-12-02T01:26:52.096Z,848.77
2017-12-02T01:27:51.959Z,848.73
2017-12-02T01:28:51.821Z,848.76
2017-12-02T01:29:51.687Z,848.81
2017-12-02T01:30:51.549Z,848.79
2017-12-02T01:31:51.414Z,848.82
2017-12-02T01:32:51.271Z,848.87
2017-12-02T01:33:51.134Z,848.92
2017-12-02T01:34:50.997Z,848.90
2017-12-02T01:35:50.861Z,848.91
2017-12-02T01:36:50.720Z,848.93
2017-12-02T01:37:50.584Z,848.92
2017-12-02T01:38:50.447Z,848.92
2017-12-02T01:39:50.309Z,848.96
2017-12-02T01:40:50.168Z,848.94
2017-12-02T01:41:50.035Z,848.96
2017-12-02T01:42:49.896Z,848.92
2017-12-02T01:43:49.765Z,848.93
2017-12-02T01:44:49.622Z,848.90
2017-12-02T01:45:49.485Z,848.91
2017-12-02T01:46:49.347Z,848.95
2017-12-02T01:47:49.207Z,848.95
2017-12-02T01:48:49.074Z,849.03
2017-12-02T01:49:48.944Z,849.00
2017-12-02T01:50:48.796Z,849.00
2017-12-02T01:51:48.658Z,849.00
2017-12-02T01:52:48.522Z,848.95
2017-12-02T01:53:48.386Z,848.98
2017-12-02T01:54:48.246Z,849.03
2017-12-02T01:55:48.113Z,849.03
2017-12-02T01:56:47.972Z,849.04
2017-12-02T01:57:47.836Z,849.03
2017-12-02T01:58:47.698Z,849.08
2017-12-02T01:59:47.562Z,849.02
2017-12-02T02:00:47.423Z,849.01
2017-12-02T02:01:47.283Z,848.99
2017-12-02T02:02:47.146Z,848.97
2017-12-02T02:03:47.009Z,849.06
2017-12-02T02:04:46.873Z,849.03
2017-12-02T02:05:46.735Z,849.05
2017-12-02T02:06:46.597Z,849.09
2017-12-02T02:07:46.459Z,849.09
2017-12-02T02:08:46.322Z,849.13
2017-12-02T02:09:46.185Z,849.11
2017-12-02T02:10:46.046Z,849.17
2017-12-02T02:11:45.908Z,849.15
2017-12-02T02:12:45.769Z,849.16
2017-12-02T02:13:45.633Z,849.20
2017-12-02T02:14:45.494Z,849.18
2017-12-02T02:15:45.359Z,849.15
2017-12-02T02:16:45.223Z,849.16
2017-12-02T02:17:45.147Z,849.15
2017-12-02T02:18:44.945Z,849.18
2017-12-02T02:19:44.851Z,849.20
2017-12-02T02:20:44.671Z,849.14
2017-12-02T02:21:44.534Z,849.18
2017-12-02T02:22:44.393Z,849.16
2017-12-02T02:23:44.261Z,849.16
2017-12-02T02:24:44.128Z,849.20
2017-12-02T02:25:43.983Z,849.18
2017-12-02T02:26:43.843Z,849.17
2017-12-02T02:27:43.706Z,849.18
2017-12-02T02:28:43.571Z,849.18
2017-12-02T02:29:43.432Z,849.14
2017-12-02T02:30:43.291Z,849.17
2017-12-02T02:31:43.159Z,849.19
2017-12-02T02:32:43.017Z,849.20
2017-12-02T02:33:42.880Z,849.21
2017-12-02T02:34:42.742Z,849.22
2017-12-02T02:35:42.605Z,849.25
2017-12-02T02:36:42.471Z,849.25
2017-12-02T02:37:42.326Z,849.23
2017-12-02T02:38:42.190Z,849.22
2017-12-02T02:39:42.051Z,849.22
2017-12-02T02:40:41.916Z,849.25
2017-12-02T02:41:41.778Z,849.26
2017-12-02T02:42:41.639Z,849.26
2017-12-02T02:43:41.501Z,849.24
2017-12-02T02:44:41.365Z,849.31
2017-12-02T02:45:41.230Z,849.26
2017-12-02T02:46:41.087Z,849.28
2017-12-02T02:47:40.951Z,849.29
2017-12-02T02:48:40.813Z,849.26
2017-12-02T02:49:40.685Z,849.27
2017-12-02T02:50:40.538Z,849.33
2017-12-02T02:51:40.400Z,849.34
2017-12-02T02:52:40.265Z,849.36
2017-12-02T02:53:40.127Z,849.37
2017-12-02T02:54:39.987Z,849.36
2017-12-02T02:55:39.852Z,849.38
2017-12-02T02:56:39.715Z,849.39
2017-12-02T02:57:39.577Z,849.44
2017-12-02T02:58:39.441Z,849.46
2017-12-02T02:59:39.300Z,849.44
2017-12-02T03:00:39.185Z,849.45
2017-12-02T03:01:39.029Z,849.47
2017-12-02T03:02:38.888Z,849.47
2017-12-02T03:03:38.752Z,849.45
2017-12-02T03:04:38.613Z,849.51
2017-12-02T03:05:38.479Z,849.47
2017-12-02T03:06:38.343Z,849.52
2017-12-02T03:07:38.202Z,849.54
2017-12-02T03:08:38.063Z,849.54
2017-12-02T03:09:37.927Z,849.50
2017-12-02T03:10:37.787Z,849.48
2017-12-02T03:11:37.659Z,849.46
2017-12-02T03:12:37.517Z,849.43
2017-12-02T03:13:37.377Z,849.45
2017-12-02T03:14:37.236Z,849.46
2017-12-02T03:15:37.102Z,849.49
2017-12-02T03:16:36.963Z,849.48
2017-12-02T03:17:36.827Z,849.48
2017-12-02T03:18:36.686Z,849.42
2017-12-02T03:19:36.549Z,849.41
2017-12-02T03:20:36.412Z,849.48
2017-12-02T03:21:36.272Z,849.49
2017-12-02T03:22:36.139Z,849.46
2017-12-02T03:23:36.000Z,849.45
2017-12-02T03:24:35.861Z,849.47
2017-12-02T03:25:35.722Z,849.53
2017-12-02T03:26:35.584Z,849.54
2017-12-02T03:27:35.447Z,849.54
2017-12-02T03:28:35.309Z,849.54
2017-12-02T03:29:35.171Z,849.62
2017-12-02T03:30:35.035Z,849.63
2017-12-02T03:31:34.893Z,849.66
2017-12-02T03:32:34.758Z,849.66
2017-12-02T03:33:34.619Z,849.68
2017-12-02T03:34:34.483Z,849.71
2017-12-02T03:35:34.344Z,849.69
2017-12-02T03:36:34.210Z,849.67
2017-12-02T03:37:34.069Z,849.72
2017-12-02T03:38:33.932Z,849.72
2017-12-02T03:39:33.850Z,849.75
2017-12-02T03:40:33.659Z,849.71
2017-12-02T03:41:33.521Z,849.72
2017-12-02T03:42:33.380Z,849.68
2017-12-02T03:43:33.242Z,849.70
2017-12-02T03:44:33.106Z,849.68
2017-12-02T03:45:32.967Z,849.69
2017-12-02T03:46:32.829Z,849.69
2017-12-02T03:47:32.692Z,849.64
2017-12-02T03:48:32.551Z,849.64
2017-12-02T03:49:32.420Z,849.66
2017-12-02T03:50:32.278Z,849.60
2017-12-02T03:51:32.140Z,849.65
2017-12-02T03:52:32.003Z,849.61
2017-12-02T03:53:31.916Z,849.64
2017-12-02T03:54:31.729Z,849.66
2017-12-02T03:55:31.591Z,849.66
2017-12-02T03:56:31.456Z,849.68
2017-12-02T03:57:31.317Z,849.63
2017-12-02T03:58:31.176Z,849.68
2017-12-02T03:59:31.039Z,849.68
2017-12-02T04:00:30.902Z,849.68
2017-12-02T04:01:30.765Z,849.66
2017-12-02T04:02:30.672Z,849.64
2017-12-02T04:03:30.490Z,849.68
2017-12-02T04:04:30.351Z,849.68
2017-12-02T04:05:30.216Z,849.71
2017-12-02T04:06:30.077Z,849.74
2017-12-02T04:07:29.942Z,849.77
2017-12-02T04:08:29.802Z,849.79
2017-12-02T04:09:29.667Z,849.77
2017-12-02T04:10:29.528Z,849.82
2017-12-02T04:11:29.390Z,849.84
2017-12-02T04:12:29.302Z,849.81
2017-12-02T04:13:29.114Z,849.88
2017-12-02T04:14:28.977Z,849.86
2017-12-02T04:15:28.840Z,849.91
2017-12-02T04:16:28.703Z,849.91
2017-12-02T04:17:28.563Z,849.89
2017-12-02T04:18:28.427Z,849.87
2017-12-02T04:19:28.289Z,849.85
2017-12-02T04:20:28.152Z,849.86
2017-12-02T04:21:28.012Z,849.85
2017-12-02T04:22:27.873Z,849.87
2017-12-02T04:23:27.737Z,849.86
2017-12-02T04:24:27.628Z,849.84
2017-12-02T04:25:27.462Z,849.84
2017-12-02T04:26:27.323Z,849.86
2017-12-02T04:27:27.190Z,849.83
2017-12-02T04:28:27.052Z,849.86
2017-12-02T04:29:26.913Z,849.87
2017-12-02T04:30:26.800Z,849.84
2017-12-02T04:31:26.642Z,849.85
2017-12-02T04:32:26.500Z,849.89
2017-12-02T04:33:26.362Z,849.90
2017-12-02T04:34:26.222Z,849.87
2017-12-02T04:35:26.087Z,849.89
2017-12-02T04:36:25.949Z,849.89
2017-12-02T04:37:25.814Z,849.90
2017-12-02T04:38:25.672Z,849.92
2017-12-02T04:39:25.536Z,849.94
2017-12-02T04:40:25.401Z,849.95
2017-12-02T04:41:25.261Z,849.95
2017-12-02T04:42:25.127Z,849.95
2017-12-02T04:43:24.986Z,849.90
2017-12-02T04:44:24.849Z,849.93
2017-12-02T04:45:24.712Z,849.96
2017-12-02T04:46:24.573Z,849.98
2017-12-02T04:47:24.437Z,849.95
2017-12-02T04:48:24.303Z,850.00
2017-12-02T04:49:24.162Z,849.98
2017-12-02T04:50:24.026Z,849.96
2017-12-02T04:51:23.896Z,850.01
2017-12-02T04:52:23.748Z,850.01
2017-12-02T04:53:23.614Z,850.02
2017-12-02T04:54:23.477Z,850.00
2017-12-02T04:55:23.338Z,850.03
2017-12-02T04:56:23.205Z,850.03
2017-12-02T04:57:23.064Z,850.02
2017-12-02T04:58:22.926Z,850.06
2017-12-02T04:59:22.854Z,850.07
2017-12-02T05:00:22.660Z,850.10
2017-12-02T05:01:22.517Z,850.08
2017-12-02T05:02:22.378Z,850.10
2017-12-02T05:03:22.241Z,850.05
2017-12-02T05:04:22.101Z,850.10
2017-12-02T05:05:21.967Z,850.07
2017-12-02T05:06:21.829Z,850.05
2017-12-02T05:07:21.691Z,850.08
2017-12-02T05:08:21.555Z,850.09
2017-12-02T05:09:21.416Z,850.09
2017-12-02T05:10:21.279Z,850.08
2017-12-02T05:11:21.141Z,850.11
2017-12-02T05:12:21.003Z,850.16
2017-12-02T05:13:20.867Z,850.09
2017-12-02T05:14:20.728Z,850.16
2017-12-02T05:15:20.592Z,850.18
2017-12-02T05:16:20.453Z,850.21
2017-12-02T05:17:20.318Z,850.20
2017-12-02T05:18:20.178Z,850.20
2017-12-02T05:19:20.045Z,850.18
2017-12-02T05:20:19.905Z,850.17
2017-12-02T05:21:19.773Z,850.20
2017-12-02T05:22:19.626Z,850.23
2017-12-02T05:23:19.502Z,850.23
2017-12-02T05:24:19.352Z,850.26
2017-12-02T05:25:19.217Z,850.26
2017-12-02T05:26:19.079Z,850.27
2017-12-02T05:27:18.943Z,850.27
2017-12-02T05:28:18.805Z,850.28
2017-12-02T05:29:18.671Z,850.28
2017-12-02T05:30:18.530Z,850.26
2017-12-02T05:31:18.392Z,850.28
2017-12-02T05:32:18.254Z,850.27
2017-12-02T05:33:18.121Z,850.29
2017-12-02T05:34:17.981Z,850.28
2017-12-02T05:35:17.844Z,850.30
2017-12-02T05:36:17.708Z,850.28
2017-12-02T05:37:17.571Z,850.27
2017-12-02T05:38:17.440Z,850.29
2017-12-02T05:39:17.295Z,850.28
2017-12-02T05:40:17.159Z,850.30
2017-12-02T05:41:17.021Z,850.29
2017-12-02T05:42:16.888Z,850.31
2017-12-02T05:43:16.748Z,850.36
2017-12-02T05:44:16.614Z,850.37
2017-12-02T05:45:16.482Z,850.36
2017-12-02T05:46:16.336Z,850.38
2017-12-02T05:47:16.202Z,850.31
2017-12-02T05:48:16.066Z,850.33
2017-12-02T05:49:15.927Z,850.33
2017-12-02T05:50:15.806Z,850.39
2017-12-02T05:51:15.666Z,850.36
2017-12-02T05:52:15.514Z,850.36
2017-12-02T05:53:15.380Z,850.39
2017-12-02T05:54:15.243Z,850.40
2017-12-02T05:55:15.109Z,850.40
2017-12-02T05:56:14.970Z,850.41
2017-12-02T05:57:14.832Z,850.42
2017-12-02T05:58:14.697Z,850.42
2017-12-02T05:59:14.558Z,850.42
2017-12-02T06:00:14.420Z,850.44
2017-12-02T06:01:14.283Z,850.43
2017-12-02T06:02:14.173Z,850.48
2017-12-02T06:03:14.010Z,850.49
2017-12-02T06:04:13.881Z,850.52
2017-12-02T06:05:13.736Z,850.52
2017-12-02T06:06:13.596Z,850.55
2017-12-02T06:07:13.460Z,850.58
2017-12-02T06:08:13.385Z,850.55
2017-12-02T06:09:13.190Z,850.55
2017-12-02T06:10:13.069Z,850.54
2017-12-02T06:11:12.921Z,850.58
2017-12-02T06:12:12.778Z,850.57
2017-12-02T06:13:12.642Z,850.59
2017-12-02T06:14:12.502Z,850.56
2017-12-02T06:15:12.367Z,850.58
2017-12-02T06:16:12.231Z,850.62
2017-12-02T06:17:12.092Z,850.57
2017-12-02T06:18:11.959Z,850.54
2017-12-02T06:19:11.817Z,850.55
2017-12-02T06:20:11.679Z,850.50
2017-12-02T06:21:11.554Z,850.47
2017-12-02T06:22:11.405Z,850.48
2017-12-02T06:23:11.268Z,850.45
2017-12-02T06:24:11.135Z,850.45
2017-12-02T06:25:10.997Z,850.47
2017-12-02T06:26:10.861Z,850.48
2017-12-02T06:27:10.722Z,850.39
2017-12-02T06:28:10.586Z,850.42
2017-12-02T06:29:10.448Z,850.39
2017-12-02T06:30:10.313Z,850.41
2017-12-02T06:31:10.305Z,850.38
2017-12-02T06:32:10.037Z,850.33
2017-12-02T06:33:09.914Z,850.33
2017-12-02T06:34:09.761Z,850.40
2017-12-02T06:35:09.625Z,850.37
2017-12-02T06:36:09.491Z,850.38
2017-12-02T06:37:09.350Z,850.39
2017-12-02T06:38:09.215Z,850.41
2017-12-02T06:39:09.079Z,850.43
2017-12-02T06:40:08.939Z,850.42
2017-12-02T06:41:08.801Z,850.41
2017-12-02T06:42:08.661Z,850.42
2017-12-02T06:43:08.528Z,850.40
2017-12-02T06:44:08.387Z,850.44
2017-12-02T06:45:08.249Z,850.46
2017-12-02T06:46:08.111Z,850.52
2017-12-02T06:47:07.981Z,850.54
2017-12-02T06:48:07.836Z,850.54
2017-12-02T06:49:07.708Z,850.57
2017-12-02T06:50:07.566Z,850.63
2017-12-02T06:51:07.422Z,850.62
2017-12-02T06:52:07.284Z,850.66
2017-12-02T06:53:07.173Z,850.65
2017-12-02T06:54:07.010Z,850.69
2017-12-02T06:55:06.875Z,850.66
2017-12-02T06:56:06.743Z,850.70
2017-12-02T06:57:06.598Z,850.70
2017-12-02T06:58:06.458Z,850.72
2017-12-02T06:59:06.320Z,850.72
2017-12-02T07:00:06.183Z,850.72
2017-12-02T07:01:06.044Z,850.75
2017-12-02T07:02:05.906Z,850.79
2017-12-02T07:03:05.767Z,850.74
2017-12-02T07:04:05.633Z,850.79
2017-12-02T07:05:05.491Z,850.77
2017-12-02T07:06:05.362Z,850.79
2017-12-02T07:07:05.217Z,850.83
2017-12-02T07:08:05.078Z,850.83
2017-12-02T07:09:04.939Z,850.84
2017-12-02T07:10:04.799Z,850.86
2017-12-02T07:11:04.662Z,850.85
2017-12-02T07:12:04.524Z,850.83
2017-12-02T07:13:04.389Z,850.82
2017-12-02T07:14:04.258Z,850.84
2017-12-02T07:15:04.110Z,850.80
2017-12-02T07:16:03.973Z,850.81
2017-12-02T07:17:03.835Z,850.83
2017-12-02T07:18:03.697Z,850.86
2017-12-02T07:19:03.561Z,850.84
2017-12-02T07:20:03.425Z,850.85
2017-12-02T07:21:03.284Z,850.84
2017-12-02T07:22:03.147Z,850.83
2017-12-02T07:23:03.009Z,850.83
2017-12-02T07:24:02.873Z,850.88
2017-12-02T07:25:02.734Z,850.87
2017-12-02T07:26:02.596Z,850.93
2017-12-02T07:27:02.480Z,850.91
2017-12-02T07:28:02.323Z,850.90
2017-12-02T07:29:02.186Z,850.91
2017-12-02T07:30:02.049Z,850.93
2017-12-02T07:31:01.912Z,850.92
2017-12-02T07:32:01.806Z,850.92
2017-12-02T07:33:01.640Z,850.94
2017-12-02T07:34:01.518Z,850.97
2017-12-02T07:35:01.364Z,850.98
2017-12-02T07:36:01.226Z,851.02
2017-12-02T07:37:01.097Z,850.99
2017-12-02T07:38:00.952Z,851.01
2017-12-02T07:39:00.818Z,851.07
2017-12-02T07:40:00.679Z,851.08
2017-12-02T07:41:00.545Z,851.09
2017-12-02T07:42:00.405Z,851.09
2017-12-02T07:43:00.270Z,851.08
2017-12-02T07:44:00.153Z,851.08
2017-12-02T07:44:59.996Z,851.08
2017-12-02T07:45:59.860Z,851.06
2017-12-02T07:46:59.729Z,851.05
2017-12-02T07:47:59.587Z,851.06
2017-12-02T07:48:59.455Z,851.01
2017-12-02T07:49:59.314Z,851.01
2017-12-02T07:50:59.177Z,851.01
2017-12-02T07:51:59.074Z,851.00
2017-12-02T07:52:58.909Z,851.04
2017-12-02T07:53:58.775Z,851.07
2017-12-02T07:54:58.631Z,851.05
2017-12-02T07:55:58.496Z,851.07
2017-12-02T07:56:58.360Z,851.02
2017-12-02T07:57:58.228Z,851.06
2017-12-02T07:58:58.088Z,851.04
2017-12-02T07:59:57.953Z,851.06
2017-12-02T08:00:57.902Z,851.08
2017-12-02T08:01:57.707Z,851.10
2017-12-02T08:02:57.583Z,851.10
2017-12-02T08:03:57.424Z,851.11
2017-12-02T08:04:57.273Z,851.10
2017-12-02T08:05:57.137Z,851.12
2017-12-02T08:06:57.007Z,851.12
2017-12-02T08:07:56.876Z,851.17
2017-12-02T08:08:56.729Z,851.20
2017-12-02T08:09:56.598Z,851.18
2017-12-02T08:10:56.456Z,851.18
2017-12-02T08:11:56.323Z,851.19
2017-12-02T08:12:56.187Z,851.19
2017-12-02T08:13:56.049Z,851.22
2017-12-02T08:14:55.961Z,851.26
2017-12-02T08:15:55.791Z,851.17
2017-12-02T08:16:55.672Z,851.19
2017-12-02T08:17:55.506Z,851.21
2017-12-02T08:18:55.383Z,851.19
2017-12-02T08:19:55.274Z,851.20
2017-12-02T08:20:55.117Z,851.22
2017-12-02T08:21:54.974Z,851.23
2017-12-02T08:22:54.826Z,851.24
2017-12-02T08:23:54.690Z,851.25
2017-12-02T08:24:54.597Z,851.28
2017-12-02T08:25:54.419Z,851.32
2017-12-02T08:26:54.285Z,851.31
2017-12-02T08:27:54.148Z,851.33
2017-12-02T08:28:54.018Z,851.35
2017-12-02T08:29:53.899Z,851.31
2017-12-02T08:30:53.740Z,851.34
2017-12-02T08:31:53.605Z,851.36
2017-12-02T08:32:53.469Z,851.34
2017-12-02T08:33:53.333Z,851.40
2017-12-02T08:34:53.196Z,851.38
2017-12-02T08:35:53.064Z,851.43
2017-12-02T08:36:52.926Z,851.48
2017-12-02T08:37:52.787Z,851.51
2017-12-02T08:38:52.654Z,851.51
2017-12-02T08:39:52.516Z,851.54
2017-12-02T08:40:52.382Z,851.53
2017-12-02T08:41:52.245Z,851.53
2017-12-02T08:42:52.109Z,851.60
2017-12-02T08:43:51.977Z,851.57
2017-12-02T08:44:51.839Z,851.58
2017-12-02T08:45:51.703Z,851.57
2017-12-02T08:46:51.568Z,851.55
2017-12-02T08:47:51.444Z,851.57
2017-12-02T08:48:51.293Z,851.56
2017-12-02T08:49:51.163Z,851.54
2017-12-02T08:50:51.022Z,851.58
2017-12-02T08:51:50.890Z,851.56
2017-12-02T08:52:50.751Z,851.56
2017-12-02T08:53:50.613Z,851.57
2017-12-02T08:54:50.479Z,851.58
2017-12-02T08:55:50.349Z,851.57
2017-12-02T08:56:50.207Z,851.57
2017-12-02T08:57:50.069Z,851.61
2017-12-02T08:58:49.938Z,851.65
2017-12-02T08:59:49.800Z,851.68
2017-12-02T09:00:49.663Z,851.68
2017-12-02T09:01:49.527Z,851.68
2017-12-02T09:02:49.390Z,851.65
2017-12-02T09:03:49.255Z,851.66
2017-12-02T09:04:49.117Z,851.69
2017-12-02T09:05:48.983Z,851.67
2017-12-02T09:06:48.849Z,851.70
2017-12-02T09:07:48.711Z,851.70
2017-12-02T09:08:48.573Z,851.74
2017-12-02T09:09:48.436Z,851.73
2017-12-02T09:10:48.328Z,851.76
2017-12-02T09:11:48.168Z,851.74
2017-12-02T09:12:48.032Z,851.76
2017-12-02T09:13:47.898Z,851.78
2017-12-02T09:14:47.757Z,851.80
2017-12-02T09:15:47.632Z,851.79
2017-12-02T09:16:47.488Z,851.81
2017-12-02T09:17:47.350Z,851.82
2017-12-02T09:18:47.215Z,851.84
2017-12-02T09:19:47.082Z,851.84
2017-12-02T09:20:46.959Z,851.85
2017-12-02T09:21:46.808Z,851.82
2017-12-02T09:22:46.684Z,851.81
2017-12-02T09:23:46.535Z,851.83
2017-12-02T09:24:46.402Z,851.80
2017-12-02T09:25:46.269Z,851.82
2017-12-02T09:26:46.128Z,851.81
2017-12-02T09:27:45.993Z,851.83
2017-12-02T09:28:45.856Z,851.85
2017-12-02T09:29:45.718Z,851.84
2017-12-02T09:30:45.591Z,851.84
2017-12-02T09:31:45.447Z,851.83
2017-12-02T09:32:45.313Z,851.83
2017-12-02T09:33:45.177Z,851.80
2017-12-02T09:34:45.050Z,851.78
2017-12-02T09:35:44.906Z,851.77
2017-12-02T09:36:44.773Z,851.77
2017-12-02T09:37:44.635Z,851.78
2017-12-02T09:38:44.499Z,851.73
2017-12-02T09:39:44.362Z,851.72
2017-12-02T09:40:44.230Z,851.71
2017-12-02T09:41:44.093Z,851.73
2017-12-02T09:42:43.963Z,851.75
2017-12-02T09:43:43.823Z,851.72
2017-12-02T09:44:43.690Z,851.71
2017-12-02T09:45:43.553Z,851.67
2017-12-02T09:46:43.415Z,851.65
2017-12-02T09:47:43.283Z,851.67
2017-12-02T09:48:43.147Z,851.70
2017-12-02T09:49:43.010Z,851.70
2017-12-02T09:50:42.877Z,851.64
2017-12-02T09:51:42.742Z,851.63
2017-12-02T09:52:42.604Z,851.62
2017-12-02T09:53:42.470Z,851.60
2017-12-02T09:54:42.355Z,851.56
2017-12-02T09:55:42.201Z,851.56
2017-12-02T09:56:42.068Z,851.55
2017-12-02T09:57:41.927Z,851.59
2017-12-02T09:58:41.797Z,851.55
2017-12-02T09:59:41.658Z,851.57
2017-12-02T10:00:41.525Z,851.54
2017-12-02T10:01:41.390Z,851.56
2017-12-02T10:02:41.251Z,851.56
2017-12-02T10:03:41.125Z,851.56
2017-12-02T10:04:40.985Z,851.55
2017-12-02T10:05:40.849Z,851.52
2017-12-02T10:06:40.716Z,851.44
2017-12-02T10:07:40.580Z,851.44
2017-12-02T10:08:40.447Z,851.43
2017-12-02T10:09:40.313Z,851.40
2017-12-02T10:10:40.182Z,851.40
2017-12-02T10:11:40.043Z,851.41
2017-12-02T10:12:39.906Z,851.44
2017-12-02T10:13:39.772Z,851.44
2017-12-02T10:14:39.645Z,851.42
2017-12-02T10:15:39.506Z,851.44
2017-12-02T10:16:39.375Z,851.45
2017-12-02T10:17:39.241Z,851.37
2017-12-02T10:18:39.104Z,851.40
2017-12-02T10:19:38.971Z,851.40
2017-12-02T10:20:38.837Z,851.42
2017-12-02T10:21:38.705Z,851.38
2017-12-02T10:22:38.571Z,851.41
2017-12-02T10:23:38.436Z,851.39
2017-12-02T10:24:38.301Z,851.36
2017-12-02T10:25:38.171Z,851.34
2017-12-02T10:26:38.033Z,851.36
2017-12-02T10:27:37.901Z,851.32
2017-12-02T10:28:37.767Z,851.35
2017-12-02T10:29:37.635Z,851.31
2017-12-02T10:30:37.500Z,851.30
2017-12-02T10:31:37.365Z,851.33
2017-12-02T10:32:37.233Z,851.31
2017-12-02T10:33:37.098Z,851.32
2017-12-02T10:34:36.967Z,851.22
2017-12-02T10:35:36.834Z,851.27
2017-12-02T10:36:36.701Z,851.21
2017-12-02T10:37:36.565Z,851.23
2017-12-02T10:38:36.438Z,851.20
2017-12-02T10:39:36.302Z,851.23
2017-12-02T10:40:36.168Z,851.19
2017-12-02T10:41:36.035Z,851.19
2017-12-02T10:42:35.901Z,851.17
2017-12-02T10:43:35.767Z,851.16
2017-12-02T10:44:35.634Z,851.16
2017-12-02T10:45:35.502Z,851.17
2017-12-02T10:46:35.371Z,851.18
2017-12-02T10:47:35.236Z,851.19
2017-12-02T10:48:35.124Z,851.18
2017-12-02T10:49:34.969Z,851.21
2017-12-02T10:50:34.841Z,851.22
2017-12-02T10:51:34.703Z,851.22
2017-12-02T10:52:34.571Z,851.18
2017-12-02T10:53:34.437Z,851.20
2017-12-02T10:54:34.404Z,851.17
2017-12-02T10:55:34.346Z,851.19
2017-12-02T10:56:34.087Z,851.20
2017-12-02T10:57:34.051Z,851.18
2017-12-02T10:58:35.459Z,851.15
2017-12-02T10:59:33.740Z,851.15
2017-12-02T11:00:33.576Z,851.15
2017-12-02T11:01:33.384Z,851.15
2017-12-02T11:02:33.315Z,851.10
2017-12-02T11:03:33.116Z,851.10
2017-12-02T11:04:33.043Z,851.05
2017-12-02T11:05:32.934Z,851.08
2017-12-02T11:06:32.807Z,851.06
2017-12-02T11:07:47.302Z,851.03
2017-12-02T11:08:32.536Z,851.03
2017-12-02T11:09:33.402Z,851.03
2017-12-02T11:10:32.287Z,850.97
2017-12-02T11:11:32.082Z,850.92
2017-12-02T11:12:31.937Z,850.94
2017-12-02T11:13:31.789Z,850.97
2017-12-02T11:14:31.655Z,850.95
2017-12-02T11:15:31.528Z,850.95
2017-12-02T11:16:31.401Z,850.95
2017-12-02T11:17:31.261Z,850.98
2017-12-02T11:18:31.130Z,850.97
2017-12-02T11:19:31.797Z,850.97
2017-12-02T11:20:31.818Z,850.95
2017-12-02T11:21:30.731Z,850.94
2017-12-02T11:22:31.296Z,850.95
2017-12-02T11:23:30.467Z,850.94
2017-12-02T11:24:30.338Z,850.91
2017-12-02T11:25:30.203Z,850.91
2017-12-02T11:26:30.797Z,850.93
2017-12-02T11:27:29.942Z,850.93
2017-12-02T11:28:29.810Z,850.90
2017-12-02T11:29:29.674Z,850.91
2017-12-02T11:30:29.544Z,850.89
2017-12-02T11:31:29.421Z,850.90
2017-12-02T11:32:29.280Z,850.87
2017-12-02T11:33:29.147Z,850.87
2017-12-02T11:34:29.049Z,850.86
2017-12-02T11:35:28.903Z,850.87
2017-12-02T11:36:28.754Z,850.88
2017-12-02T11:37:28.621Z,850.90
2017-12-02T11:38:28.489Z,850.86
2017-12-02T11:39:28.358Z,850.89
2017-12-02T11:40:28.224Z,850.88
2017-12-02T11:41:28.118Z,850.86
2017-12-02T11:42:28.019Z,850.90
2017-12-02T11:43:27.828Z,850.90
2017-12-02T11:44:27.703Z,850.94
2017-12-02T11:45:27.585Z,850.89
2017-12-02T11:46:27.434Z,850.93
2017-12-02T11:47:27.300Z,850.91
2017-12-02T11:48:27.172Z,850.93
2017-12-02T11:49:27.041Z,850.94
2017-12-02T11:50:26.916Z,850.92
2017-12-02T11:51:26.778Z,850.90
2017-12-02T11:52:26.644Z,850.92
2017-12-02T11:53:26.510Z,850.86
2017-12-02T11:54:26.381Z,850.83
2017-12-02T11:55:26.249Z,850.81
2017-12-02T11:56:26.151Z,850.87
2017-12-02T11:57:25.985Z,850.89
2017-12-02T11:58:25.856Z,850.87
2017-12-02T11:59:25.724Z,850.85
2017-12-02T12:00:25.593Z,850.90
2017-12-02T12:01:25.461Z,850.93
2017-12-02T12:02:25.329Z,850.94
2017-12-02T12:03:25.203Z,850.95
2017-12-02T12:04:25.066Z,851.00
2017-12-02T12:05:24.936Z,850.99
2017-12-02T12:06:24.803Z,851.02
2017-12-02T12:07:24.675Z,851.02
2017-12-02T12:08:24.554Z,850.98
2017-12-02T12:09:24.419Z,850.99
2017-12-02T12:10:24.289Z,850.96
2017-12-02T12:11:24.162Z,850.99
2017-12-02T12:12:24.034Z,851.06
2017-12-02T12:13:23.884Z,851.07
2017-12-02T12:14:23.753Z,851.05
2017-12-02T12:15:23.618Z,851.03
2017-12-02T12:16:23.513Z,851.00
2017-12-02T12:17:23.357Z,851.03
2017-12-02T12:18:23.228Z,851.03
2017-12-02T12:19:23.094Z,851.02
2017-12-02T12:20:22.964Z,851.04
2017-12-02T12:21:22.836Z,851.04
2017-12-02T12:22:22.703Z,851.05
2017-12-02T12:23:22.575Z,851.02
2017-12-02T12:24:22.437Z,851.04
2017-12-02T12:25:22.313Z,851.00
2017-12-02T12:26:22.173Z,851.05